createdAt,value
2022-09-26T00:00:35.068Z,1006.38
2022-09-26T00:01:35.136Z,1006.34
2022-09-26T00:02:35.078Z,1006.32
2022-09-26T00:03:35.032Z,1006.31
2022-09-26T00:04:35.021Z,1006.27
2022-09-26T00:05:35.040Z,1006.30
2022-09-26T00:06:35.018Z,1006.21
2022-09-26T00:07:35.009Z,1006.16
2022-09-26T00:08:34.979Z,1006.09
2022-09-26T00:09:34.969Z,1006.08
2022-09-26T00:10:34.968Z,1006.05
2022-09-26T00:11:34.958Z,1006.04
2022-09-26T00:12:34.938Z,1005.98
2022-09-26T00:13:34.920Z,1006.00
2022-09-26T00:14:34.919Z,1005.98
2022-09-26T00:15:34.899Z,1005.95
2022-09-26T00:16:34.976Z,1005.96
2022-09-26T00:17:34.884Z,1005.91
2022-09-26T00:18:34.898Z,1005.92
2022-09-26T00:19:34.851Z,1005.91
2022-09-26T00:20:34.856Z,1005.91
2022-09-26T00:21:34.823Z,1005.91
2022-09-26T00:22:34.834Z,1005.84
2022-09-26T00:23:34.814Z,1005.82
2022-09-26T00:24:34.833Z,1005.82
2022-09-26T00:25:34.806Z,1005.83
2022-09-26T00:26:34.794Z,1005.73
2022-09-26T00:27:34.785Z,1005.71
2022-09-26T00:28:34.763Z,1005.68
2022-09-26T00:29:34.736Z,1005.70
2022-09-26T00:30:34.799Z,1005.70
2022-09-26T00:31:34.738Z,1005.66
2022-09-26T00:32:34.734Z,1005.65
2022-09-26T00:33:34.721Z,1005.61
2022-09-26T00:34:34.727Z,1005.60
2022-09-26T00:35:34.669Z,1005.64
2022-09-26T00:36:38.443Z,1005.56
2022-09-26T00:37:34.655Z,1005.60
2022-09-26T00:38:34.638Z,1005.52
2022-09-26T00:39:34.632Z,1005.51
2022-09-26T00:40:34.708Z,1005.53
2022-09-26T00:41:34.622Z,1005.53
2022-09-26T00:42:34.599Z,1005.53
2022-09-26T00:43:34.587Z,1005.51
2022-09-26T00:44:34.580Z,1005.56
2022-09-26T00:45:34.583Z,1005.60
2022-09-26T00:46:34.584Z,1005.59
2022-09-26T00:47:34.547Z,1005.51
2022-09-26T00:48:34.528Z,1005.50
2022-09-26T00:49:34.509Z,1005.45
2022-09-26T00:50:34.549Z,1005.44
2022-09-26T00:51:34.493Z,1005.42
2022-09-26T00:52:34.550Z,1005.42
2022-09-26T00:53:34.468Z,1005.45
2022-09-26T00:54:34.463Z,1005.43
2022-09-26T00:55:34.456Z,1005.35
2022-09-26T00:56:34.454Z,1005.33
2022-09-26T00:57:34.426Z,1005.37
2022-09-26T00:58:34.445Z,1005.33
2022-09-26T00:59:34.422Z,1005.35
2022-09-26T01:00:34.402Z,1005.31
2022-09-26T01:01:34.499Z,1005.28
2022-09-26T01:02:34.512Z,1005.31
2022-09-26T01:03:34.350Z,1005.25
2022-09-26T01:04:34.352Z,1005.18
2022-09-26T01:05:34.343Z,1005.18
2022-09-26T01:06:34.355Z,1005.19
2022-09-26T01:07:34.315Z,1005.20
2022-09-26T01:08:34.315Z,1005.20
2022-09-26T01:09:34.326Z,1005.16
2022-09-26T01:10:34.295Z,1005.13
2022-09-26T01:11:34.282Z,1005.15
2022-09-26T01:12:34.277Z,1005.14
2022-09-26T01:13:34.257Z,1005.12
2022-09-26T01:14:34.248Z,1005.06
2022-09-26T01:15:34.244Z,1005.04
2022-09-26T01:16:34.354Z,1005.06
2022-09-26T01:17:34.235Z,1005.09
2022-09-26T01:18:34.197Z,1005.01
2022-09-26T01:19:34.179Z,1005.05
2022-09-26T01:20:34.188Z,1004.99
2022-09-26T01:21:34.188Z,1004.97
2022-09-26T01:22:34.155Z,1005.00
2022-09-26T01:23:34.199Z,1004.92
2022-09-26T01:24:34.151Z,1004.92
2022-09-26T01:25:34.118Z,1004.88
2022-09-26T01:26:34.106Z,1004.93
2022-09-26T01:27:34.097Z,1004.82
2022-09-26T01:28:34.089Z,1004.83
2022-09-26T01:29:34.104Z,1004.83
2022-09-26T01:30:34.140Z,1004.82
2022-09-26T01:31:34.050Z,1004.79
2022-09-26T01:32:34.043Z,1004.80
2022-09-26T01:33:34.021Z,1004.77
2022-09-26T01:34:34.018Z,1004.75
2022-09-26T01:35:34.031Z,1004.75
2022-09-26T01:36:34.001Z,1004.75
2022-09-26T01:37:33.989Z,1004.73
2022-09-26T01:38:33.970Z,1004.72
2022-09-26T01:39:33.964Z,1004.76
2022-09-26T01:40:34.066Z,1004.77
2022-09-26T01:41:33.935Z,1004.75
2022-09-26T01:42:33.944Z,1004.75
2022-09-26T01:43:33.924Z,1004.73
2022-09-26T01:44:33.931Z,1004.73
2022-09-26T01:45:33.981Z,1004.78
2022-09-26T01:46:33.924Z,1004.77
2022-09-26T01:47:33.891Z,1004.78
2022-09-26T01:48:33.865Z,1004.80
2022-09-26T01:49:33.849Z,1004.79
2022-09-26T01:50:33.850Z,1004.75
2022-09-26T01:51:33.843Z,1004.75
2022-09-26T01:52:33.827Z,1004.73
2022-09-26T01:53:33.817Z,1004.75
2022-09-26T01:54:33.807Z,1004.74
2022-09-26T01:55:33.786Z,1004.72
2022-09-26T01:56:33.797Z,1004.70
2022-09-26T01:57:33.766Z,1004.61
2022-09-26T01:58:33.746Z,1004.67
2022-09-26T01:59:33.737Z,1004.68
2022-09-26T02:00:33.779Z,1004.63
2022-09-26T02:01:33.785Z,1004.61
2022-09-26T02:02:33.768Z,1004.59
2022-09-26T02:03:33.692Z,1004.59
2022-09-26T02:04:33.689Z,1004.53
2022-09-26T02:05:33.697Z,1004.47
2022-09-26T02:06:33.673Z,1004.42
2022-09-26T02:07:33.650Z,1004.40
2022-09-26T02:08:33.686Z,1004.34
2022-09-26T02:09:33.643Z,1004.37
2022-09-26T02:10:33.620Z,1004.34
2022-09-26T02:11:33.609Z,1004.40
2022-09-26T02:12:33.601Z,1004.35
2022-09-26T02:13:33.594Z,1004.34
2022-09-26T02:14:33.611Z,1004.27
2022-09-26T02:15:33.563Z,1004.28
2022-09-26T02:16:33.617Z,1004.26
2022-09-26T02:17:33.543Z,1004.21
2022-09-26T02:18:33.534Z,1004.19
2022-09-26T02:19:33.526Z,1004.17
2022-09-26T02:20:33.534Z,1004.16
2022-09-26T02:21:33.502Z,1004.13
2022-09-26T02:22:33.496Z,1004.11
2022-09-26T02:23:33.468Z,1004.08
2022-09-26T02:24:33.464Z,1004.03
2022-09-26T02:25:33.474Z,1004.06
2022-09-26T02:26:33.471Z,1004.00
2022-09-26T02:27:33.446Z,1004.02
2022-09-26T02:28:33.422Z,1003.98
2022-09-26T02:29:33.407Z,1004.02
2022-09-26T02:30:33.393Z,1003.91
2022-09-26T02:31:33.478Z,1003.87
2022-09-26T02:32:33.391Z,1003.84
2022-09-26T02:33:33.359Z,1003.84
2022-09-26T02:34:33.356Z,1003.80
2022-09-26T02:35:33.347Z,1003.78
2022-09-26T02:36:33.357Z,1003.79
2022-09-26T02:37:33.356Z,1003.78
2022-09-26T02:38:33.305Z,1003.78
2022-09-26T02:39:33.298Z,1003.76
2022-09-26T02:40:33.336Z,1003.71
2022-09-26T02:41:33.268Z,1003.71
2022-09-26T02:42:33.261Z,1003.66
2022-09-26T02:43:33.903Z,1003.72
2022-09-26T02:44:33.276Z,1003.66
2022-09-26T02:45:33.302Z,1003.62
2022-09-26T02:46:33.242Z,1003.61
2022-09-26T02:47:33.240Z,1003.63
2022-09-26T02:48:33.200Z,1003.63
2022-09-26T02:49:33.179Z,1003.58
2022-09-26T02:50:33.773Z,1003.59
2022-09-26T02:51:33.182Z,1003.59
2022-09-26T02:52:33.172Z,1003.56
2022-09-26T02:53:33.182Z,1003.55
2022-09-26T02:54:33.132Z,1003.54
2022-09-26T02:55:33.121Z,1003.50
2022-09-26T02:56:33.113Z,1003.51
2022-09-26T02:57:33.099Z,1003.42
2022-09-26T02:58:33.093Z,1003.42
2022-09-26T02:59:33.116Z,1003.42
2022-09-26T03:00:33.068Z,1003.37
2022-09-26T03:01:33.088Z,1003.37
2022-09-26T03:02:33.067Z,1003.37
2022-09-26T03:03:33.102Z,1003.31
2022-09-26T03:04:33.199Z,1003.31
2022-09-26T03:05:33.038Z,1003.26
2022-09-26T03:06:32.993Z,1003.31
2022-09-26T03:07:33.026Z,1003.23
2022-09-26T03:08:32.985Z,1003.20
2022-09-26T03:09:33.640Z,1003.20
2022-09-26T03:10:32.973Z,1003.20
2022-09-26T03:11:32.948Z,1003.20
2022-09-26T03:12:32.939Z,1003.15
2022-09-26T03:13:32.933Z,1003.16
2022-09-26T03:14:32.917Z,1003.18
2022-09-26T03:15:32.921Z,1003.09
2022-09-26T03:16:32.945Z,1003.10
2022-09-26T03:17:32.878Z,1003.07
2022-09-26T03:18:32.866Z,1003.07
2022-09-26T03:19:32.853Z,1003.07
2022-09-26T03:20:32.868Z,1003.03
2022-09-26T03:21:36.930Z,1002.99
2022-09-26T03:22:32.848Z,1002.97
2022-09-26T03:23:32.823Z,1002.98
2022-09-26T03:24:32.811Z,1002.93
2022-09-26T03:25:32.808Z,1002.90
2022-09-26T03:26:32.769Z,1002.89
2022-09-26T03:27:32.791Z,1002.96
2022-09-26T03:28:37.429Z,1002.89
2022-09-26T03:29:33.746Z,1002.87
2022-09-26T03:30:32.722Z,1002.85
2022-09-26T03:31:32.754Z,1002.83
2022-09-26T03:32:32.763Z,1002.80
2022-09-26T03:33:32.699Z,1002.80
2022-09-26T03:34:32.684Z,1002.79
2022-09-26T03:35:32.672Z,1002.74
2022-09-26T03:36:32.661Z,1002.81
2022-09-26T03:37:32.651Z,1002.72
2022-09-26T03:38:32.672Z,1002.76
2022-09-26T03:39:32.632Z,1002.75
2022-09-26T03:40:32.659Z,1002.75
2022-09-26T03:41:32.635Z,1002.71
2022-09-26T03:42:32.593Z,1002.73
2022-09-26T03:43:32.636Z,1002.71
2022-09-26T03:44:32.570Z,1002.69
2022-09-26T03:45:32.615Z,1002.68
2022-09-26T03:46:37.540Z,1002.71
2022-09-26T03:47:33.555Z,1002.71
2022-09-26T03:48:32.543Z,1002.66
2022-09-26T03:49:32.524Z,1002.62
2022-09-26T03:50:32.544Z,1002.63
2022-09-26T03:51:32.503Z,1002.61
2022-09-26T03:52:32.482Z,1002.61
2022-09-26T03:53:32.475Z,1002.60
2022-09-26T03:54:32.465Z,1002.59
2022-09-26T03:55:32.449Z,1002.51
2022-09-26T03:56:32.469Z,1002.60
2022-09-26T03:57:32.458Z,1002.57
2022-09-26T03:58:32.574Z,1002.54
2022-09-26T03:59:32.426Z,1002.54
2022-09-26T04:00:32.407Z,1002.48
2022-09-26T04:01:32.415Z,1002.48
2022-09-26T04:02:33.227Z,1002.44
2022-09-26T04:03:32.368Z,1002.47
2022-09-26T04:04:32.364Z,1002.41
2022-09-26T04:05:32.407Z,1002.37
2022-09-26T04:06:32.332Z,1002.37
2022-09-26T04:07:32.336Z,1002.36
2022-09-26T04:08:32.347Z,1002.33
2022-09-26T04:09:32.302Z,1002.36
2022-09-26T04:10:32.288Z,1002.34
2022-09-26T04:11:32.298Z,1002.36
2022-09-26T04:12:32.264Z,1002.28
2022-09-26T04:13:51.933Z,1002.34
2022-09-26T04:14:33.318Z,1002.25
2022-09-26T04:15:32.282Z,1002.25
2022-09-26T04:16:32.362Z,1002.25
2022-09-26T04:17:32.316Z,1002.21
2022-09-26T04:18:32.192Z,1002.16
2022-09-26T04:19:32.352Z,1002.16
2022-09-26T04:20:32.172Z,1002.12
2022-09-26T04:21:32.195Z,1002.13
2022-09-26T04:22:32.156Z,1002.14
2022-09-26T04:23:32.143Z,1002.11
2022-09-26T04:24:32.135Z,1002.08
2022-09-26T04:25:32.130Z,1002.04
2022-09-26T04:26:32.103Z,1002.02
2022-09-26T04:27:32.115Z,1002.00
2022-09-26T04:28:32.082Z,1002.03
2022-09-26T04:29:32.079Z,1002.02
2022-09-26T04:30:32.056Z,1002.01
2022-09-26T04:31:32.388Z,1002.04
2022-09-26T04:32:32.169Z,1001.99
2022-09-26T04:33:32.281Z,1001.95
2022-09-26T04:34:32.101Z,1001.96
2022-09-26T04:35:32.021Z,1001.87
2022-09-26T04:36:31.999Z,1001.88
2022-09-26T04:37:31.988Z,1001.93
2022-09-26T04:38:31.998Z,1001.92
2022-09-26T04:39:31.957Z,1001.93
2022-09-26T04:40:32.040Z,1001.83
2022-09-26T04:41:31.948Z,1001.83
2022-09-26T04:42:31.929Z,1001.80
2022-09-26T04:43:31.978Z,1001.82
2022-09-26T04:44:32.154Z,1001.76
2022-09-26T04:45:32.099Z,1001.73
2022-09-26T04:46:32.007Z,1001.76
2022-09-26T04:47:32.264Z,1001.77
2022-09-26T04:48:31.917Z,1001.72
2022-09-26T04:49:31.910Z,1001.67
2022-09-26T04:50:31.900Z,1001.65
2022-09-26T04:51:31.849Z,1001.63
2022-09-26T04:52:31.871Z,1001.67
2022-09-26T04:53:31.856Z,1001.63
2022-09-26T04:54:31.791Z,1001.58
2022-09-26T04:55:31.795Z,1001.58
2022-09-26T04:56:32.573Z,1001.57
2022-09-26T04:57:31.760Z,1001.55
2022-09-26T04:58:31.903Z,1001.52
2022-09-26T04:59:31.773Z,1001.56
2022-09-26T05:00:31.983Z,1001.48
2022-09-26T05:01:31.785Z,1001.59
2022-09-26T05:02:31.780Z,1001.47
2022-09-26T05:03:31.699Z,1001.48
2022-09-26T05:04:31.700Z,1001.42
2022-09-26T05:05:32.007Z,1001.45
2022-09-26T05:06:38.327Z,1001.46
2022-09-26T05:07:32.231Z,1001.37
2022-09-26T05:08:31.648Z,1001.35
2022-09-26T05:09:35.682Z,1001.38
2022-09-26T05:10:31.625Z,1001.34
2022-09-26T05:11:31.650Z,1001.29
2022-09-26T05:12:31.606Z,1001.30
2022-09-26T05:13:32.441Z,1001.28
2022-09-26T05:14:31.590Z,1001.27
2022-09-26T05:15:31.560Z,1001.25
2022-09-26T05:16:31.772Z,1001.28
2022-09-26T05:17:32.015Z,1001.28
2022-09-26T05:18:32.992Z,1001.27
2022-09-26T05:19:31.835Z,1001.26
2022-09-26T05:20:31.522Z,1001.19
2022-09-26T05:21:32.972Z,1001.18
2022-09-26T05:22:32.334Z,1001.15
2022-09-26T05:23:31.490Z,1001.17
2022-09-26T05:24:31.504Z,1001.15
2022-09-26T05:25:31.943Z,1001.14
2022-09-26T05:26:31.710Z,1001.13
2022-09-26T05:27:31.439Z,1001.11
2022-09-26T05:28:31.546Z,1001.14
2022-09-26T05:29:31.460Z,1001.04
2022-09-26T05:30:31.479Z,1001.10
2022-09-26T05:31:31.497Z,1001.08
2022-09-26T05:32:31.410Z,1001.04
2022-09-26T05:33:31.375Z,1001.04
2022-09-26T05:34:31.368Z,1000.98
2022-09-26T05:35:31.380Z,1001.00
2022-09-26T05:36:31.381Z,1000.98
2022-09-26T05:37:31.344Z,1000.93
2022-09-26T05:38:31.314Z,1000.99
2022-09-26T05:39:32.764Z,1000.98
2022-09-26T05:40:31.419Z,1000.97
2022-09-26T05:41:31.526Z,1000.95
2022-09-26T05:42:31.812Z,1000.99
2022-09-26T05:43:32.703Z,1000.96
2022-09-26T05:44:32.101Z,1000.92
2022-09-26T05:45:31.318Z,1000.85
2022-09-26T05:46:32.247Z,1000.89
2022-09-26T05:47:32.164Z,1000.90
2022-09-26T05:48:31.296Z,1000.83
2022-09-26T05:49:31.206Z,1000.85
2022-09-26T05:50:31.256Z,1000.86
2022-09-26T05:51:31.818Z,1000.88
2022-09-26T05:52:31.268Z,1000.82
2022-09-26T05:53:31.250Z,1000.81
2022-09-26T05:54:31.176Z,1000.84
2022-09-26T05:55:31.380Z,1000.78
2022-09-26T05:56:31.127Z,1000.79
2022-09-26T05:57:32.050Z,1000.74
2022-09-26T05:58:32.567Z,1000.75
2022-09-26T05:59:31.357Z,1000.78
2022-09-26T06:00:31.618Z,1000.75
2022-09-26T06:01:31.328Z,1000.76
2022-09-26T06:02:32.539Z,1000.73
2022-09-26T06:03:31.029Z,1000.72
2022-09-26T06:04:31.851Z,1000.77
2022-09-26T06:05:31.021Z,1000.69
2022-09-26T06:06:31.038Z,1000.69
2022-09-26T06:07:31.930Z,1000.73
2022-09-26T06:08:30.992Z,1000.65
2022-09-26T06:09:32.436Z,1000.63
2022-09-26T06:10:31.915Z,1000.61
2022-09-26T06:11:31.305Z,1000.63
2022-09-26T06:12:31.343Z,1000.61
2022-09-26T06:13:31.005Z,1000.59
2022-09-26T06:14:31.893Z,1000.59
2022-09-26T06:15:30.931Z,1000.54
2022-09-26T06:16:31.090Z,1000.61
2022-09-26T06:17:30.875Z,1000.58
2022-09-26T06:18:31.044Z,1000.56
2022-09-26T06:19:30.862Z,1000.51
2022-09-26T06:20:31.689Z,1000.50
2022-09-26T06:21:30.957Z,1000.51
2022-09-26T06:22:31.214Z,1000.47
2022-09-26T06:23:31.181Z,1000.46
2022-09-26T06:24:31.265Z,1000.49
2022-09-26T06:25:32.250Z,1000.44
2022-09-26T06:26:30.784Z,1000.43
2022-09-26T06:27:30.867Z,1000.36
2022-09-26T06:28:30.758Z,1000.43
2022-09-26T06:29:31.531Z,1000.38
2022-09-26T06:30:30.736Z,1000.34
2022-09-26T06:31:30.805Z,1000.32
2022-09-26T06:32:30.793Z,1000.32
2022-09-26T06:33:33.437Z,1000.33
2022-09-26T06:34:31.694Z,1000.27
2022-09-26T06:35:30.703Z,1000.22
2022-09-26T06:36:30.858Z,1000.23
2022-09-26T06:37:31.140Z,1000.20
2022-09-26T06:38:30.699Z,1000.23
2022-09-26T06:39:31.279Z,1000.15
2022-09-26T06:40:31.496Z,1000.17
2022-09-26T06:41:30.629Z,1000.15
2022-09-26T06:42:30.608Z,1000.06
2022-09-26T06:43:30.601Z,1000.08
2022-09-26T06:44:30.629Z,1000.08
2022-09-26T06:45:30.568Z,1000.04
2022-09-26T06:46:30.624Z,1000.04
2022-09-26T06:47:30.668Z,1000.02
2022-09-26T06:48:30.741Z,1000.03
2022-09-26T06:49:30.789Z,999.97
2022-09-26T06:50:30.541Z,999.96
2022-09-26T06:51:30.603Z,999.90
2022-09-26T06:52:31.957Z,999.94
2022-09-26T06:53:31.949Z,999.87
2022-09-26T06:54:31.294Z,999.91
2022-09-26T06:55:30.456Z,999.94
2022-09-26T06:56:30.476Z,999.90
2022-09-26T06:57:30.652Z,999.92
2022-09-26T06:58:30.430Z,999.88
2022-09-26T06:59:30.913Z,999.90
2022-09-26T07:00:30.436Z,999.93
2022-09-26T07:01:30.728Z,999.97
2022-09-26T07:02:30.403Z,999.95
2022-09-26T07:03:30.376Z,999.94
2022-09-26T07:04:30.685Z,999.87
2022-09-26T07:05:30.404Z,999.92
2022-09-26T07:06:31.811Z,999.91
2022-09-26T07:07:30.605Z,999.94
2022-09-26T07:09:00.518Z,999.87
2022-09-26T07:09:31.397Z,999.93
2022-09-26T07:10:30.308Z,999.87
2022-09-26T07:11:41.873Z,999.88
2022-09-26T07:12:31.275Z,999.85
2022-09-26T07:13:31.491Z,999.85
2022-09-26T07:14:30.856Z,999.81
2022-09-26T07:15:31.575Z,999.84
2022-09-26T07:16:30.280Z,999.78
2022-09-26T07:17:30.215Z,999.81
2022-09-26T07:18:30.211Z,999.78
2022-09-26T07:19:30.232Z,999.80
2022-09-26T07:20:30.241Z,999.82
2022-09-26T07:21:30.180Z,999.72
2022-09-26T07:22:31.120Z,999.74
2022-09-26T07:23:31.601Z,999.69
2022-09-26T07:24:30.223Z,999.62
2022-09-26T07:25:30.968Z,999.70
2022-09-26T07:26:30.258Z,999.61
2022-09-26T07:27:30.102Z,999.65
2022-09-26T07:28:30.097Z,999.59
2022-09-26T07:29:30.267Z,999.55
2022-09-26T07:30:30.108Z,999.46
2022-09-26T07:31:30.156Z,999.50
2022-09-26T07:32:30.093Z,999.50
2022-09-26T07:33:30.031Z,999.45
2022-09-26T07:34:30.051Z,999.41
2022-09-26T07:35:30.054Z,999.35
2022-09-26T07:36:30.003Z,999.37
2022-09-26T07:37:29.996Z,999.34
2022-09-26T07:38:29.990Z,999.36
2022-09-26T07:39:30.143Z,999.31
2022-09-26T07:40:29.977Z,999.28
2022-09-26T07:41:29.993Z,999.32
2022-09-26T07:42:30.154Z,999.29
2022-09-26T07:44:12.706Z,999.37
2022-09-26T07:45:31.304Z,999.40
2022-09-26T07:46:29.965Z,999.40
2022-09-26T07:47:29.894Z,999.46
2022-09-26T07:48:29.862Z,999.37
2022-09-26T07:49:29.877Z,999.46
2022-09-26T07:50:30.094Z,999.44
2022-09-26T07:51:29.842Z,999.45
2022-09-26T07:52:29.818Z,999.47
2022-09-26T07:53:30.101Z,999.42
2022-09-26T07:54:29.848Z,999.44
2022-09-26T07:55:29.790Z,999.41
2022-09-26T07:56:29.818Z,999.38
2022-09-26T07:57:29.768Z,999.39
2022-09-26T07:58:29.756Z,999.39
2022-09-26T07:59:29.769Z,999.40
2022-09-26T08:00:29.981Z,999.36
2022-09-26T08:01:29.799Z,999.36
2022-09-26T08:02:29.849Z,999.33
2022-09-26T08:03:29.880Z,999.33
2022-09-26T08:04:29.702Z,999.30
2022-09-26T08:05:29.681Z,999.31
2022-09-26T08:06:29.690Z,999.33
2022-09-26T08:07:29.673Z,999.26
2022-09-26T08:08:29.646Z,999.28
2022-09-26T08:09:29.633Z,999.23
2022-09-26T08:10:29.617Z,999.23
2022-09-26T08:11:29.619Z,999.21
2022-09-26T08:12:29.624Z,999.20
2022-09-26T08:13:29.589Z,999.22
2022-09-26T08:14:29.608Z,999.22
2022-09-26T08:15:29.584Z,999.17
2022-09-26T08:16:29.689Z,999.24
2022-09-26T08:17:29.542Z,999.15
2022-09-26T08:18:29.523Z,999.13
2022-09-26T08:19:29.522Z,999.12
2022-09-26T08:20:32.235Z,999.16
2022-09-26T08:21:29.507Z,999.14
2022-09-26T08:22:29.490Z,999.10
2022-09-26T08:23:29.544Z,999.06
2022-09-26T08:24:29.471Z,999.07
2022-09-26T08:25:29.790Z,999.12
2022-09-26T08:26:29.440Z,999.16
2022-09-26T08:27:29.426Z,999.16
2022-09-26T08:28:29.613Z,999.15
2022-09-26T08:29:29.450Z,999.17
2022-09-26T08:30:29.392Z,999.12
2022-09-26T08:31:29.488Z,999.13
2022-09-26T08:32:29.551Z,999.12
2022-09-26T08:33:29.408Z,999.14
2022-09-26T08:34:30.009Z,999.10
2022-09-26T08:35:29.464Z,999.07
2022-09-26T08:36:29.328Z,999.03
2022-09-26T08:37:29.389Z,999.00
2022-09-26T08:38:29.338Z,999.00
2022-09-26T08:39:33.275Z,998.97
2022-09-26T08:40:29.329Z,998.97
2022-09-26T08:41:29.284Z,998.96
2022-09-26T08:42:29.316Z,998.94
2022-09-26T08:43:29.295Z,998.89
2022-09-26T08:44:29.245Z,998.84
2022-09-26T08:45:29.235Z,998.85
2022-09-26T08:46:29.255Z,998.82
2022-09-26T08:47:29.241Z,998.89
2022-09-26T08:48:29.222Z,998.85
2022-09-26T08:49:29.222Z,998.89
2022-09-26T08:50:29.172Z,998.95
2022-09-26T08:51:29.546Z,998.89
2022-09-26T08:52:29.195Z,998.86
2022-09-26T08:53:29.167Z,998.84
2022-09-26T08:54:29.136Z,998.91
2022-09-26T08:55:29.118Z,998.87
2022-09-26T08:56:29.106Z,998.89
2022-09-26T08:57:29.191Z,998.84
2022-09-26T08:58:29.463Z,998.88
2022-09-26T08:59:30.045Z,998.86
2022-09-26T09:00:29.076Z,998.84
2022-09-26T09:01:29.129Z,998.81
2022-09-26T09:02:29.181Z,998.80
2022-09-26T09:03:29.089Z,998.83
2022-09-26T09:04:29.076Z,998.81
2022-09-26T09:05:29.057Z,998.83
2022-09-26T09:06:29.050Z,998.81
2022-09-26T09:07:29.022Z,998.83
2022-09-26T09:08:29.204Z,998.82
2022-09-26T09:09:28.996Z,998.84
2022-09-26T09:10:28.997Z,998.78
2022-09-26T09:11:28.935Z,998.80
2022-09-26T09:12:32.145Z,998.78
2022-09-26T09:13:29.034Z,998.75
2022-09-26T09:14:30.348Z,998.79
2022-09-26T09:15:29.023Z,998.73
2022-09-26T09:16:28.927Z,998.76
2022-09-26T09:17:28.907Z,998.73
2022-09-26T09:18:28.874Z,998.74
2022-09-26T09:19:28.863Z,998.70
2022-09-26T09:20:28.830Z,998.66
2022-09-26T09:21:28.868Z,998.68
2022-09-26T09:22:28.841Z,998.63
2022-09-26T09:23:28.816Z,998.64
2022-09-26T09:24:28.811Z,998.67
2022-09-26T09:25:28.788Z,998.63
2022-09-26T09:28:29.757Z,998.58
2022-09-26T09:29:28.743Z,998.59
2022-09-26T09:30:28.766Z,998.52
2022-09-26T09:31:28.755Z,998.52
2022-09-26T09:32:28.714Z,998.56
2022-09-26T09:33:28.694Z,998.50
2022-09-26T09:34:28.683Z,998.47
2022-09-26T09:35:28.683Z,998.53
2022-09-26T09:36:28.699Z,998.42
2022-09-26T09:37:28.684Z,998.39
2022-09-26T09:38:28.644Z,998.36
2022-09-26T09:39:28.643Z,998.44
2022-09-26T09:40:28.658Z,998.38
2022-09-26T09:41:28.644Z,998.35
2022-09-26T09:42:28.596Z,998.33
2022-09-26T09:43:28.613Z,998.23
2022-09-26T09:44:29.263Z,998.20
2022-09-26T09:45:28.575Z,998.17
2022-09-26T09:46:28.597Z,998.17
2022-09-26T09:47:28.542Z,998.17
2022-09-26T09:48:28.545Z,998.21
2022-09-26T09:49:28.536Z,998.15
2022-09-26T09:50:28.505Z,998.13
2022-09-26T09:51:28.558Z,998.14
2022-09-26T09:52:28.791Z,998.19
2022-09-26T09:53:28.485Z,998.10
2022-09-26T09:54:28.479Z,998.11
2022-09-26T09:55:28.454Z,998.10
2022-09-26T09:56:28.439Z,998.02
2022-09-26T09:57:28.481Z,998.08
2022-09-26T09:58:29.110Z,997.97
2022-09-26T09:59:28.418Z,997.91
2022-09-26T10:00:28.394Z,997.93
2022-09-26T10:01:28.532Z,997.90
2022-09-26T10:02:28.428Z,997.90
2022-09-26T10:03:28.369Z,997.93
2022-09-26T10:04:28.422Z,997.87
2022-09-26T10:05:28.368Z,997.78
2022-09-26T10:06:45.546Z,997.73
2022-09-26T10:07:29.377Z,997.76
2022-09-26T10:08:28.375Z,997.77
2022-09-26T10:09:35.194Z,997.75
2022-09-26T10:10:29.366Z,997.72
2022-09-26T10:11:28.299Z,997.72
2022-09-26T10:12:28.776Z,997.68
2022-09-26T10:13:28.253Z,997.67
2022-09-26T10:14:28.243Z,997.67
2022-09-26T10:15:28.238Z,997.65
2022-09-26T10:16:28.361Z,997.57
2022-09-26T10:17:28.227Z,997.56
2022-09-26T10:18:28.233Z,997.55
2022-09-26T10:19:28.239Z,997.59
2022-09-26T10:20:28.184Z,997.55
2022-09-26T10:21:28.176Z,997.56
2022-09-26T10:22:28.142Z,997.50
2022-09-26T10:23:28.168Z,997.52
2022-09-26T10:24:28.130Z,997.52
2022-09-26T10:25:28.125Z,997.48
2022-09-26T10:26:31.433Z,997.51
2022-09-26T10:27:28.108Z,997.48
2022-09-26T10:28:28.235Z,997.43
2022-09-26T10:29:28.119Z,997.40
2022-09-26T10:30:28.168Z,997.43
2022-09-26T10:31:28.129Z,997.41
2022-09-26T10:32:28.219Z,997.51
2022-09-26T10:33:28.037Z,997.38
2022-09-26T10:34:28.116Z,997.42
2022-09-26T10:35:28.248Z,997.38
2022-09-26T10:36:28.000Z,997.38
2022-09-26T10:37:27.997Z,997.35
2022-09-26T10:38:28.042Z,997.36
2022-09-26T10:39:28.260Z,997.34
2022-09-26T10:40:27.965Z,997.35
2022-09-26T10:41:27.942Z,997.35
2022-09-26T10:42:32.146Z,997.34
2022-09-26T10:43:27.921Z,997.33
2022-09-26T10:44:27.946Z,997.27
2022-09-26T10:45:27.893Z,997.22
2022-09-26T10:46:28.339Z,997.22
2022-09-26T10:47:28.821Z,997.22
2022-09-26T10:48:27.871Z,997.19
2022-09-26T10:49:27.963Z,997.24
2022-09-26T10:50:27.941Z,997.16
2022-09-26T10:51:28.156Z,997.14
2022-09-26T10:52:28.062Z,997.12
2022-09-26T10:53:27.812Z,997.14
2022-09-26T10:54:27.803Z,997.04
2022-09-26T10:55:27.955Z,997.01
2022-09-26T10:56:27.802Z,997.07
2022-09-26T10:57:27.925Z,996.93
2022-09-26T10:58:28.279Z,996.98
2022-09-26T10:59:27.744Z,996.96
2022-09-26T11:00:27.739Z,996.98
2022-09-26T11:01:27.833Z,996.92
2022-09-26T11:02:27.706Z,996.86
2022-09-26T11:03:27.723Z,996.79
2022-09-26T11:04:27.690Z,996.85
2022-09-26T11:05:27.688Z,996.82
2022-09-26T11:06:27.697Z,996.71
2022-09-26T11:07:27.666Z,996.76
2022-09-26T11:08:27.639Z,996.69
2022-09-26T11:09:27.626Z,996.70
2022-09-26T11:10:27.641Z,996.74
2022-09-26T11:11:27.627Z,996.70
2022-09-26T11:12:27.830Z,996.72
2022-09-26T11:13:27.640Z,996.67
2022-09-26T11:14:28.611Z,996.50
2022-09-26T11:15:27.564Z,996.68
2022-09-26T11:16:27.826Z,996.69
2022-09-26T11:17:27.554Z,996.63
2022-09-26T11:18:27.562Z,996.63
2022-09-26T11:19:27.512Z,996.62
2022-09-26T11:20:27.503Z,996.63
2022-09-26T11:21:29.087Z,996.61
2022-09-26T11:22:27.530Z,996.55
2022-09-26T11:23:27.509Z,996.58
2022-09-26T11:24:27.466Z,996.56
2022-09-26T11:25:27.465Z,996.53
2022-09-26T11:26:27.456Z,996.51
2022-09-26T11:27:27.465Z,996.46
2022-09-26T11:28:27.447Z,996.51
2022-09-26T11:29:27.435Z,996.49
2022-09-26T11:30:27.437Z,996.43
2022-09-26T11:31:27.499Z,996.42
2022-09-26T11:32:27.380Z,996.41
2022-09-26T11:33:27.369Z,996.39
2022-09-26T11:34:27.368Z,996.30
2022-09-26T11:35:27.369Z,996.32
2022-09-26T11:36:27.354Z,996.29
2022-09-26T11:37:28.233Z,996.24
2022-09-26T11:38:27.395Z,996.30
2022-09-26T11:39:27.342Z,996.27
2022-09-26T11:40:27.930Z,996.17
2022-09-26T11:41:27.601Z,996.22
2022-09-26T11:42:27.330Z,996.17
2022-09-26T11:43:27.388Z,996.07
2022-09-26T11:44:27.424Z,996.14
2022-09-26T11:45:27.782Z,996.08
2022-09-26T11:46:28.100Z,996.11
2022-09-26T11:47:27.209Z,996.01
2022-09-26T11:48:27.190Z,996.09
2022-09-26T11:49:27.194Z,995.98
2022-09-26T11:50:27.318Z,996.01
2022-09-26T11:51:27.209Z,996.02
2022-09-26T11:52:27.162Z,996.01
2022-09-26T11:53:27.309Z,996.04
2022-09-26T11:54:27.133Z,995.98
2022-09-26T11:55:27.128Z,995.99
2022-09-26T11:56:27.143Z,996.02
2022-09-26T11:57:27.166Z,996.03
2022-09-26T11:58:27.094Z,996.01
2022-09-26T11:59:27.080Z,995.97
2022-09-26T12:00:27.062Z,995.99
2022-09-26T12:01:27.064Z,995.97
2022-09-26T12:02:27.107Z,995.97
2022-09-26T12:03:27.234Z,995.92
2022-09-26T12:04:27.059Z,995.93
2022-09-26T12:05:27.661Z,995.91
2022-09-26T12:06:27.013Z,995.94
2022-09-26T12:07:26.985Z,995.86
2022-09-26T12:08:27.029Z,995.92
2022-09-26T12:09:26.970Z,995.92
2022-09-26T12:10:26.966Z,995.85
2022-09-26T12:11:26.951Z,995.92
2022-09-26T12:12:26.942Z,995.85
2022-09-26T12:13:26.967Z,995.85
2022-09-26T12:14:26.934Z,995.97
2022-09-26T12:15:27.222Z,995.91
2022-09-26T12:16:26.936Z,995.94
2022-09-26T12:17:26.869Z,995.90
2022-09-26T12:18:26.876Z,995.92